sensor_id;sensor_type;location;lat;lon;timestamp;P1;durP1;ratioP1;P2;durP2;ratioP2
6195;SDS011;3131;42.630;23.382;2022-12-07T00:01:51;58.63;;;27.73;;
6195;SDS011;3131;42.630;23.382;2022-12-07T00:04:21;55.97;;;26.67;;
6195;SDS011;3131;42.630;23.382;2022-12-07T00:06:51;56.17;;;25.93;;
6195;SDS011;3131;42.630;23.382;2022-12-07T00:09:20;48.27;;;23.33;;
6195;SDS011;3131;42.630;23.382;2022-12-07T00:11:50;57.07;;;25.23;;
6195;SDS011;3131;42.630;23.382;2022-12-07T00:14:19;51.93;;;24.07;;
6195;SDS011;3131;42.630;23.382;2022-12-07T00:16:49;50.73;;;22.63;;
6195;SDS011;3131;42.630;23.382;2022-12-07T00:19:19;49.73;;;22.00;;
6195;SDS011;3131;42.630;23.382;2022-12-07T00:21:48;69.50;;;28.20;;
6195;SDS011;3131;42.630;23.382;2022-12-07T00:24:29;66.90;;;27.33;;
6195;SDS011;3131;42.630;23.382;2022-12-07T00:26:58;58.17;;;24.47;;
6195;SDS011;3131;42.630;23.382;2022-12-07T00:29:45;60.63;;;26.47;;
6195;SDS011;3131;42.630;23.382;2022-12-07T00:32:14;65.37;;;28.47;;
6195;SDS011;3131;42.630;23.382;2022-12-07T00:35:01;55.47;;;24.57;;
6195;SDS011;3131;42.630;23.382;2022-12-07T00:37:30;64.03;;;30.33;;
6195;SDS011;3131;42.630;23.382;2022-12-07T00:40:11;69.87;;;31.13;;
6195;SDS011;3131;42.630;23.382;2022-12-07T00:42:41;67.47;;;27.93;;
6195;SDS011;3131;42.630;23.382;2022-12-07T00:45:10;56.00;;;26.03;;
6195;SDS011;3131;42.630;23.382;2022-12-07T00:47:50;58.50;;;25.57;;
6195;SDS011;3131;42.630;23.382;2022-12-07T00:52:59;44.40;;;21.73;;
6195;SDS011;3131;42.630;23.382;2022-12-07T00:55:28;51.10;;;20.33;;
6195;SDS011;3131;42.630;23.382;2022-12-07T00:58:11;54.70;;;23.73;;
6195;SDS011;3131;42.630;23.382;2022-12-07T01:00:41;51.90;;;24.60;;
6195;SDS011;3131;42.630;23.382;2022-12-07T01:03:12;47.23;;;22.50;;
6195;SDS011;3131;42.630;23.382;2022-12-07T01:05:49;54.20;;;22.53;;
6195;SDS011;3131;42.630;23.382;2022-12-07T01:08:19;50.60;;;21.90;;
6195;SDS011;3131;42.630;23.382;2022-12-07T01:10:56;44.87;;;22.20;;
6195;SDS011;3131;42.630;23.382;2022-12-07T01:13:25;41.40;;;18.97;;
6195;SDS011;3131;42.630;23.382;2022-12-07T01:15:57;44.93;;;19.47;;
6195;SDS011;3131;42.630;23.382;2022-12-07T01:18:27;38.47;;;18.60;;
6195;SDS011;3131;42.630;23.382;2022-12-07T01:20:58;39.47;;;18.47;;
6195;SDS011;3131;42.630;23.382;2022-12-07T01:23:45;48.20;;;20.33;;
6195;SDS011;3131;42.630;23.382;2022-12-07T01:26:16;50.87;;;21.93;;
6195;SDS011;3131;42.630;23.382;2022-12-07T01:28:46;45.27;;;22.50;;
6195;SDS011;3131;42.630;23.382;2022-12-07T01:31:33;53.47;;;22.00;;
6195;SDS011;3131;42.630;23.382;2022-12-07T01:34:03;46.30;;;20.57;;
6195;SDS011;3131;42.630;23.382;2022-12-07T01:36:49;43.17;;;21.83;;
6195;SDS011;3131;42.630;23.382;2022-12-07T01:39:18;43.17;;;20.87;;
6195;SDS011;3131;42.630;23.382;2022-12-07T01:41:58;43.73;;;20.83;;
6195;SDS011;3131;42.630;23.382;2022-12-07T01:44:27;51.67;;;20.03;;
6195;SDS011;3131;42.630;23.382;2022-12-07T01:47:11;39.67;;;19.33;;
6195;SDS011;3131;42.630;23.382;2022-12-07T01:49:41;38.93;;;19.40;;
6195;SDS011;3131;42.630;23.382;2022-12-07T01:52:22;40.23;;;19.77;;
6195;SDS011;3131;42.630;23.382;2022-12-07T01:54:55;70.17;;;28.60;;
6195;SDS011;3131;42.630;23.382;2022-12-07T01:57:26;56.87;;;24.13;;
6195;SDS011;3131;42.630;23.382;2022-12-07T01:59:57;51.97;;;25.03;;
6195;SDS011;3131;42.630;23.382;2022-12-07T02:02:43;55.13;;;24.50;;
6195;SDS011;3131;42.630;23.382;2022-12-07T02:05:13;57.07;;;27.03;;
6195;SDS011;3131;42.630;23.382;2022-12-07T02:07:54;60.77;;;28.83;;
6195;SDS011;3131;42.630;23.382;2022-12-07T02:10:25;59.93;;;27.70;;
6195;SDS011;3131;42.630;23.382;2022-12-07T02:13:08;66.90;;;26.80;;
6195;SDS011;3131;42.630;23.382;2022-12-07T02:15:44;56.80;;;27.70;;
6195;SDS011;3131;42.630;23.382;2022-12-07T02:18:41;68.30;;;27.07;;
6195;SDS011;3131;42.630;23.382;2022-12-07T02:21:14;68.43;;;28.13;;
6195;SDS011;3131;42.630;23.382;2022-12-07T02:30:13;66.43;;;28.20;;
6195;SDS011;3131;42.630;23.382;2022-12-07T02:32:46;58.57;;;26.70;;
6195;SDS011;3131;42.630;23.382;2022-12-07T02:35:19;52.17;;;25.57;;
6195;SDS011;3131;42.630;23.382;2022-12-07T02:37:55;57.50;;;27.50;;
6195;SDS011;3131;42.630;23.382;2022-12-07T02:40:38;53.83;;;24.07;;
6195;SDS011;3131;42.630;23.382;2022-12-07T02:43:10;65.40;;;27.20;;
6195;SDS011;3131;42.630;23.382;2022-12-07T02:45:42;59.13;;;25.40;;
6195;SDS011;3131;42.630;23.382;2022-12-07T02:48:14;54.33;;;24.43;;
6195;SDS011;3131;42.630;23.382;2022-12-07T02:53:31;69.10;;;28.03;;
6195;SDS011;3131;42.630;23.382;2022-12-07T02:56:05;58.27;;;27.47;;
6195;SDS011;3131;42.630;23.382;2022-12-07T02:58:38;60.50;;;25.77;;
6195;SDS011;3131;42.630;23.382;2022-12-07T03:01:13;63.50;;;26.30;;
6195;SDS011;3131;42.630;23.382;2022-12-07T03:03:46;58.03;;;27.13;;
6195;SDS011;3131;42.630;23.382;2022-12-07T03:06:18;56.53;;;25.23;;
6195;SDS011;3131;42.630;23.382;2022-12-07T03:08:52;57.00;;;26.43;;
6195;SDS011;3131;42.630;23.382;2022-12-07T03:11:24;55.50;;;26.33;;
6195;SDS011;3131;42.630;23.382;2022-12-07T03:13:58;61.13;;;25.80;;
6195;SDS011;3131;42.630;23.382;2022-12-07T03:16:31;57.40;;;27.33;;
6195;SDS011;3131;42.630;23.382;2022-12-07T03:19:17;64.70;;;25.67;;
6195;SDS011;3131;42.630;23.382;2022-12-07T03:21:50;56.43;;;25.03;;
6195;SDS011;3131;42.630;23.382;2022-12-07T03:24:21;54.83;;;25.00;;
6195;SDS011;3131;42.630;23.382;2022-12-07T03:27:09;54.63;;;25.67;;
6195;SDS011;3131;42.630;23.382;2022-12-07T03:29:42;55.07;;;26.87;;
6195;SDS011;3131;42.630;23.382;2022-12-07T03:32:14;60.10;;;25.87;;
6195;SDS011;3131;42.630;23.382;2022-12-07T03:34:45;51.23;;;24.00;;
6195;SDS011;3131;42.630;23.382;2022-12-07T03:37:18;60.93;;;24.63;;
6195;SDS011;3131;42.630;23.382;2022-12-07T03:39:53;47.70;;;23.67;;
6195;SDS011;3131;42.630;23.382;2022-12-07T03:42:32;60.83;;;24.47;;
6195;SDS011;3131;42.630;23.382;2022-12-07T03:45:02;53.97;;;25.53;;
6195;SDS011;3131;42.630;23.382;2022-12-07T03:47:34;60.17;;;25.90;;
6195;SDS011;3131;42.630;23.382;2022-12-07T03:50:07;66.33;;;27.17;;
6195;SDS011;3131;42.630;23.382;2022-12-07T03:55:18;63.83;;;26.40;;
6195;SDS011;3131;42.630;23.382;2022-12-07T03:57:51;54.40;;;25.27;;
6195;SDS011;3131;42.630;23.382;2022-12-07T04:00:22;58.97;;;25.77;;
6195;SDS011;3131;42.630;23.382;2022-12-07T04:02:52;58.10;;;24.70;;
6195;SDS011;3131;42.630;23.382;2022-12-07T04:05:22;63.43;;;25.93;;
6195;SDS011;3131;42.630;23.382;2022-12-07T04:07:52;63.17;;;25.37;;
6195;SDS011;3131;42.630;23.382;2022-12-07T04:10:21;60.03;;;25.53;;
6195;SDS011;3131;42.630;23.382;2022-12-07T04:12:51;61.73;;;26.57;;
6195;SDS011;3131;42.630;23.382;2022-12-07T04:15:20;53.23;;;25.57;;
6195;SDS011;3131;42.630;23.382;2022-12-07T04:17:50;61.73;;;26.03;;
6195;SDS011;3131;42.630;23.382;2022-12-07T04:20:21;70.30;;;27.83;;
6195;SDS011;3131;42.630;23.382;2022-12-07T04:22:50;64.23;;;25.33;;
6195;SDS011;3131;42.630;23.382;2022-12-07T04:25:36;61.97;;;26.87;;
6195;SDS011;3131;42.630;23.382;2022-12-07T04:28:06;53.07;;;24.20;;
6195;SDS011;3131;42.630;23.382;2022-12-07T04:30:35;53.60;;;25.27;;
6195;SDS011;3131;42.630;23.382;2022-12-07T04:33:04;53.50;;;25.47;;
6195;SDS011;3131;42.630;23.382;2022-12-07T04:35:34;46.90;;;23.07;;
6195;SDS011;3131;42.630;23.382;2022-12-07T04:38:04;62.10;;;26.27;;
6195;SDS011;3131;42.630;23.382;2022-12-07T04:40:33;48.67;;;23.63;;
6195;SDS011;3131;42.630;23.382;2022-12-07T04:43:03;55.60;;;24.40;;
6195;SDS011;3131;42.630;23.382;2022-12-07T04:45:32;51.87;;;24.93;;
6195;SDS011;3131;42.630;23.382;2022-12-07T04:48:02;56.43;;;25.47;;
6195;SDS011;3131;42.630;23.382;2022-12-07T04:53:16;53.10;;;24.60;;
6195;SDS011;3131;42.630;23.382;2022-12-07T04:55:46;52.17;;;25.00;;
6195;SDS011;3131;42.630;23.382;2022-12-07T04:58:15;62.77;;;25.17;;
6195;SDS011;3131;42.630;23.382;2022-12-07T05:00:44;52.73;;;24.40;;
6195;SDS011;3131;42.630;23.382;2022-12-07T05:03:13;52.20;;;24.47;;
6195;SDS011;3131;42.630;23.382;2022-12-07T05:05:43;50.17;;;23.20;;
6195;SDS011;3131;42.630;23.382;2022-12-07T05:08:12;60.00;;;24.00;;
6195;SDS011;3131;42.630;23.382;2022-12-07T05:10:41;50.33;;;24.23;;
6195;SDS011;3131;42.630;23.382;2022-12-07T05:13:11;53.00;;;23.67;;
6195;SDS011;3131;42.630;23.382;2022-12-07T05:15:40;58.27;;;25.07;;
6195;SDS011;3131;42.630;23.382;2022-12-07T05:18:10;55.23;;;24.97;;
6195;SDS011;3131;42.630;23.382;2022-12-07T05:20:39;46.93;;;21.60;;
6195;SDS011;3131;42.630;23.382;2022-12-07T05:23:26;56.23;;;23.53;;
6195;SDS011;3131;42.630;23.382;2022-12-07T05:25:55;59.03;;;22.77;;
6195;SDS011;3131;42.630;23.382;2022-12-07T05:28:25;54.23;;;25.00;;
6195;SDS011;3131;42.630;23.382;2022-12-07T05:30:54;58.17;;;24.90;;
6195;SDS011;3131;42.630;23.382;2022-12-07T05:33:23;52.50;;;25.03;;
6195;SDS011;3131;42.630;23.382;2022-12-07T05:35:53;52.27;;;25.83;;
6195;SDS011;3131;42.630;23.382;2022-12-07T05:38:22;58.73;;;25.60;;
6195;SDS011;3131;42.630;23.382;2022-12-07T05:40:51;62.93;;;26.23;;
6195;SDS011;3131;42.630;23.382;2022-12-07T05:43:21;51.90;;;23.27;;
6195;SDS011;3131;42.630;23.382;2022-12-07T05:45:50;64.70;;;28.00;;
6195;SDS011;3131;42.630;23.382;2022-12-07T05:48:20;54.27;;;24.53;;
6195;SDS011;3131;42.630;23.382;2022-12-07T05:50:49;57.43;;;26.23;;
6195;SDS011;3131;42.630;23.382;2022-12-07T05:53:19;59.37;;;25.17;;
6195;SDS011;3131;42.630;23.382;2022-12-07T05:55:59;56.53;;;24.63;;
6195;SDS011;3131;42.630;23.382;2022-12-07T05:58:29;61.17;;;26.33;;
6195;SDS011;3131;42.630;23.382;2022-12-07T06:01:16;65.23;;;26.83;;
6195;SDS011;3131;42.630;23.382;2022-12-07T06:03:45;60.87;;;26.17;;
6195;SDS011;3131;42.630;23.382;2022-12-07T06:06:15;53.43;;;25.00;;
6195;SDS011;3131;42.630;23.382;2022-12-07T06:08:44;54.10;;;25.00;;
6195;SDS011;3131;42.630;23.382;2022-12-07T06:11:14;61.77;;;24.80;;
6195;SDS011;3131;42.630;23.382;2022-12-07T06:16:56;58.57;;;25.30;;
6195;SDS011;3131;42.630;23.382;2022-12-07T06:19:26;54.93;;;25.17;;
6195;SDS011;3131;42.630;23.382;2022-12-07T06:21:55;66.43;;;26.10;;
6195;SDS011;3131;42.630;23.382;2022-12-07T06:24:25;56.10;;;24.43;;
6195;SDS011;3131;42.630;23.382;2022-12-07T06:26:54;62.90;;;27.23;;
6195;SDS011;3131;42.630;23.382;2022-12-07T06:29:24;63.77;;;27.27;;
6195;SDS011;3131;42.630;23.382;2022-12-07T06:31:53;57.10;;;26.07;;
6195;SDS011;3131;42.630;23.382;2022-12-07T06:34:23;64.10;;;27.07;;
6195;SDS011;3131;42.630;23.382;2022-12-07T06:36:53;60.10;;;27.37;;
6195;SDS011;3131;42.630;23.382;2022-12-07T06:39:24;61.90;;;26.80;;
6195;SDS011;3131;42.630;23.382;2022-12-07T06:41:55;65.67;;;26.57;;
6195;SDS011;3131;42.630;23.382;2022-12-07T06:44:25;72.93;;;26.80;;
6195;SDS011;3131;42.630;23.382;2022-12-07T06:46:55;66.37;;;28.97;;
6195;SDS011;3131;42.630;23.382;2022-12-07T06:49:24;71.77;;;27.10;;
6195;SDS011;3131;42.630;23.382;2022-12-07T06:51:53;58.93;;;25.10;;
6195;SDS011;3131;42.630;23.382;2022-12-07T06:54:23;66.03;;;26.60;;
6195;SDS011;3131;42.630;23.382;2022-12-07T06:56:53;59.77;;;25.60;;
6195;SDS011;3131;42.630;23.382;2022-12-07T06:59:22;63.17;;;26.40;;
6195;SDS011;3131;42.630;23.382;2022-12-07T07:01:52;62.17;;;26.80;;
6195;SDS011;3131;42.630;23.382;2022-12-07T07:04:21;65.07;;;27.87;;
6195;SDS011;3131;42.630;23.382;2022-12-07T07:06:51;61.03;;;26.80;;
6195;SDS011;3131;42.630;23.382;2022-12-07T07:09:20;50.13;;;24.47;;
6195;SDS011;3131;42.630;23.382;2022-12-07T07:11:49;62.23;;;26.40;;
6195;SDS011;3131;42.630;23.382;2022-12-07T07:14:19;65.33;;;27.60;;
6195;SDS011;3131;42.630;23.382;2022-12-07T07:16:48;71.87;;;28.83;;
6195;SDS011;3131;42.630;23.382;2022-12-07T07:19:18;61.53;;;27.10;;
6195;SDS011;3131;42.630;23.382;2022-12-07T07:21:47;67.70;;;27.63;;
6195;SDS011;3131;42.630;23.382;2022-12-07T07:24:17;56.90;;;25.97;;
6195;SDS011;3131;42.630;23.382;2022-12-07T07:26:46;57.27;;;26.80;;
6195;SDS011;3131;42.630;23.382;2022-12-07T07:29:15;65.37;;;28.10;;
6195;SDS011;3131;42.630;23.382;2022-12-07T07:31:45;59.23;;;28.77;;
6195;SDS011;3131;42.630;23.382;2022-12-07T07:34:14;67.37;;;25.90;;
6195;SDS011;3131;42.630;23.382;2022-12-07T07:36:44;56.47;;;26.00;;
6195;SDS011;3131;42.630;23.382;2022-12-07T07:39:13;73.23;;;27.47;;
6195;SDS011;3131;42.630;23.382;2022-12-07T07:41:42;72.43;;;25.83;;
6195;SDS011;3131;42.630;23.382;2022-12-07T07:44:12;54.13;;;24.47;;
6195;SDS011;3131;42.630;23.382;2022-12-07T07:46:41;67.93;;;26.67;;
6195;SDS011;3131;42.630;23.382;2022-12-07T07:49:11;51.50;;;24.33;;
6195;SDS011;3131;42.630;23.382;2022-12-07T07:51:40;63.27;;;25.23;;
6195;SDS011;3131;42.630;23.382;2022-12-07T07:54:09;60.80;;;24.17;;
6195;SDS011;3131;42.630;23.382;2022-12-07T07:56:38;58.53;;;26.30;;
6195;SDS011;3131;42.630;23.382;2022-12-07T07:59:08;55.27;;;26.37;;
6195;SDS011;3131;42.630;23.382;2022-12-07T08:01:37;46.77;;;23.13;;
6195;SDS011;3131;42.630;23.382;2022-12-07T08:04:06;70.73;;;25.93;;
6195;SDS011;3131;42.630;23.382;2022-12-07T08:06:36;57.43;;;24.13;;
6195;SDS011;3131;42.630;23.382;2022-12-07T08:09:05;40.03;;;20.80;;
6195;SDS011;3131;42.630;23.382;2022-12-07T08:11:34;47.33;;;22.30;;
6195;SDS011;3131;42.630;23.382;2022-12-07T08:14:04;53.37;;;22.43;;
6195;SDS011;3131;42.630;23.382;2022-12-07T08:16:33;40.90;;;20.77;;
6195;SDS011;3131;42.630;23.382;2022-12-07T08:19:02;42.13;;;20.27;;
6195;SDS011;3131;42.630;23.382;2022-12-07T08:21:34;41.53;;;21.33;;
6195;SDS011;3131;42.630;23.382;2022-12-07T08:24:03;44.60;;;20.10;;
6195;SDS011;3131;42.630;23.382;2022-12-07T08:26:33;41.50;;;20.93;;
6195;SDS011;3131;42.630;23.382;2022-12-07T08:29:03;43.10;;;19.87;;
6195;SDS011;3131;42.630;23.382;2022-12-07T08:31:32;44.70;;;21.10;;
6195;SDS011;3131;42.630;23.382;2022-12-07T08:34:02;41.80;;;21.00;;
6195;SDS011;3131;42.630;23.382;2022-12-07T08:36:31;48.20;;;23.17;;
6195;SDS011;3131;42.630;23.382;2022-12-07T08:39:00;55.57;;;22.00;;
6195;SDS011;3131;42.630;23.382;2022-12-07T08:41:30;47.37;;;21.73;;
6195;SDS011;3131;42.630;23.382;2022-12-07T08:43:59;45.87;;;21.83;;
6195;SDS011;3131;42.630;23.382;2022-12-07T08:46:30;45.50;;;21.33;;
6195;SDS011;3131;42.630;23.382;2022-12-07T08:49:03;53.53;;;22.43;;
6195;SDS011;3131;42.630;23.382;2022-12-07T08:54:20;54.53;;;21.90;;
6195;SDS011;3131;42.630;23.382;2022-12-07T08:56:49;50.80;;;21.93;;
6195;SDS011;3131;42.630;23.382;2022-12-07T08:59:21;50.03;;;21.67;;
6195;SDS011;3131;42.630;23.382;2022-12-07T09:01:50;50.53;;;22.03;;
6195;SDS011;3131;42.630;23.382;2022-12-07T09:04:19;50.03;;;21.40;;
6195;SDS011;3131;42.630;23.382;2022-12-07T09:06:49;44.47;;;21.63;;
6195;SDS011;3131;42.630;23.382;2022-12-07T09:09:18;49.23;;;20.47;;
6195;SDS011;3131;42.630;23.382;2022-12-07T09:11:48;53.73;;;21.03;;
6195;SDS011;3131;42.630;23.382;2022-12-07T09:14:17;44.63;;;21.37;;
6195;SDS011;3131;42.630;23.382;2022-12-07T09:16:46;42.43;;;21.50;;
6195;SDS011;3131;42.630;23.382;2022-12-07T09:19:16;40.80;;;20.90;;
6195;SDS011;3131;42.630;23.382;2022-12-07T09:21:45;56.20;;;22.30;;
6195;SDS011;3131;42.630;23.382;2022-12-07T09:24:14;48.53;;;22.30;;
6195;SDS011;3131;42.630;23.382;2022-12-07T09:26:44;46.73;;;23.97;;
6195;SDS011;3131;42.630;23.382;2022-12-07T09:29:13;51.47;;;22.27;;
6195;SDS011;3131;42.630;23.382;2022-12-07T09:31:42;51.27;;;23.80;;
6195;SDS011;3131;42.630;23.382;2022-12-07T09:34:12;47.07;;;21.43;;
6195;SDS011;3131;42.630;23.382;2022-12-07T09:36:41;47.53;;;21.93;;
6195;SDS011;3131;42.630;23.382;2022-12-07T09:39:10;49.07;;;21.17;;
6195;SDS011;3131;42.630;23.382;2022-12-07T09:41:40;47.73;;;21.30;;
6195;SDS011;3131;42.630;23.382;2022-12-07T09:44:12;47.73;;;22.93;;
6195;SDS011;3131;42.630;23.382;2022-12-07T09:46:44;51.17;;;22.80;;
6195;SDS011;3131;42.630;23.382;2022-12-07T09:49:14;52.93;;;21.33;;
6195;SDS011;3131;42.630;23.382;2022-12-07T09:52:03;45.80;;;20.87;;
6195;SDS011;3131;42.630;23.382;2022-12-07T09:54:45;43.37;;;21.17;;
6195;SDS011;3131;42.630;23.382;2022-12-07T09:57:17;39.47;;;20.57;;
6195;SDS011;3131;42.630;23.382;2022-12-07T09:59:48;49.83;;;20.57;;
6195;SDS011;3131;42.630;23.382;2022-12-07T10:02:23;57.13;;;21.50;;
6195;SDS011;3131;42.630;23.382;2022-12-07T10:04:54;56.27;;;22.83;;
6195;SDS011;3131;42.630;23.382;2022-12-07T10:07:25;41.87;;;20.23;;
6195;SDS011;3131;42.630;23.382;2022-12-07T10:09:54;57.20;;;23.00;;
6195;SDS011;3131;42.630;23.382;2022-12-07T10:12:23;53.60;;;19.53;;
6195;SDS011;3131;42.630;23.382;2022-12-07T10:14:54;38.87;;;21.07;;
6195;SDS011;3131;42.630;23.382;2022-12-07T10:17:33;45.23;;;22.73;;
6195;SDS011;3131;42.630;23.382;2022-12-07T10:20:21;41.23;;;19.87;;
6195;SDS011;3131;42.630;23.382;2022-12-07T10:22:55;46.27;;;19.43;;
6195;SDS011;3131;42.630;23.382;2022-12-07T10:25:26;43.40;;;19.80;;
6195;SDS011;3131;42.630;23.382;2022-12-07T10:28:00;37.77;;;20.40;;
6195;SDS011;3131;42.630;23.382;2022-12-07T10:30:32;42.23;;;20.57;;
6195;SDS011;3131;42.630;23.382;2022-12-07T10:33:03;35.07;;;18.23;;
6195;SDS011;3131;42.630;23.382;2022-12-07T10:35:37;41.13;;;18.17;;
6195;SDS011;3131;42.630;23.382;2022-12-07T10:38:14;37.67;;;18.13;;
6195;SDS011;3131;42.630;23.382;2022-12-07T10:41:03;41.87;;;19.10;;
6195;SDS011;3131;42.630;23.382;2022-12-07T10:43:33;35.57;;;18.10;;
6195;SDS011;3131;42.630;23.382;2022-12-07T10:48:58;31.83;;;17.77;;
6195;SDS011;3131;42.630;23.382;2022-12-07T10:51:39;40.77;;;20.00;;
6195;SDS011;3131;42.630;23.382;2022-12-07T10:54:11;40.90;;;19.83;;
6195;SDS011;3131;42.630;23.382;2022-12-07T10:56:47;38.80;;;19.07;;
6195;SDS011;3131;42.630;23.382;2022-12-07T10:59:27;36.07;;;17.50;;
6195;SDS011;3131;42.630;23.382;2022-12-07T11:02:09;40.03;;;18.43;;
6195;SDS011;3131;42.630;23.382;2022-12-07T11:04:56;37.53;;;18.60;;
6195;SDS011;3131;42.630;23.382;2022-12-07T11:07:34;38.43;;;17.93;;
6195;SDS011;3131;42.630;23.382;2022-12-07T11:10:18;45.47;;;19.60;;
6195;SDS011;3131;42.630;23.382;2022-12-07T11:13:13;49.40;;;18.63;;
6195;SDS011;3131;42.630;23.382;2022-12-07T11:15:59;38.93;;;18.20;;
6195;SDS011;3131;42.630;23.382;2022-12-07T11:18:36;43.23;;;19.43;;
6195;SDS011;3131;42.630;23.382;2022-12-07T11:21:23;45.53;;;20.53;;
6195;SDS011;3131;42.630;23.382;2022-12-07T11:23:55;50.40;;;20.10;;
6195;SDS011;3131;42.630;23.382;2022-12-07T11:26:29;53.83;;;20.93;;
6195;SDS011;3131;42.630;23.382;2022-12-07T11:29:34;36.27;;;19.37;;
6195;SDS011;3131;42.630;23.382;2022-12-07T11:32:32;39.27;;;19.13;;
6195;SDS011;3131;42.630;23.382;2022-12-07T11:35:05;49.93;;;21.37;;
6195;SDS011;3131;42.630;23.382;2022-12-07T11:37:37;46.57;;;20.20;;
6195;SDS011;3131;42.630;23.382;2022-12-07T11:40:13;60.60;;;23.03;;
6195;SDS011;3131;42.630;23.382;2022-12-07T11:42:46;50.00;;;21.50;;
6195;SDS011;3131;42.630;23.382;2022-12-07T11:45:20;42.63;;;21.70;;
6195;SDS011;3131;42.630;23.382;2022-12-07T11:48:01;57.03;;;22.50;;
6195;SDS011;3131;42.630;23.382;2022-12-07T11:50:34;53.53;;;20.07;;
6195;SDS011;3131;42.630;23.382;2022-12-07T11:53:22;39.63;;;19.43;;
6195;SDS011;3131;42.630;23.382;2022-12-07T11:55:54;64.90;;;20.67;;
6195;SDS011;3131;42.630;23.382;2022-12-07T11:58:33;50.17;;;19.70;;
6195;SDS011;3131;42.630;23.382;2022-12-07T12:01:11;35.87;;;19.10;;
6195;SDS011;3131;42.630;23.382;2022-12-07T12:03:45;47.27;;;19.73;;
6195;SDS011;3131;42.630;23.382;2022-12-07T12:06:15;47.40;;;20.67;;
6195;SDS011;3131;42.630;23.382;2022-12-07T12:08:46;59.27;;;21.73;;
6195;SDS011;3131;42.630;23.382;2022-12-07T12:11:37;44.50;;;19.30;;
6195;SDS011;3131;42.630;23.382;2022-12-07T12:14:16;50.67;;;21.27;;
6195;SDS011;3131;42.630;23.382;2022-12-07T12:17:05;47.20;;;20.23;;
6195;SDS011;3131;42.630;23.382;2022-12-07T12:19:42;45.93;;;18.67;;
6195;SDS011;3131;42.630;23.382;2022-12-07T12:22:16;53.23;;;20.33;;
6195;SDS011;3131;42.630;23.382;2022-12-07T12:24:56;64.67;;;21.47;;
6195;SDS011;3131;42.630;23.382;2022-12-07T12:27:27;42.03;;;19.20;;
6195;SDS011;3131;42.630;23.382;2022-12-07T12:29:59;42.80;;;19.57;;
6195;SDS011;3131;42.630;23.382;2022-12-07T12:32:31;56.03;;;19.70;;
6195;SDS011;3131;42.630;23.382;2022-12-07T12:35:28;34.13;;;17.93;;
6195;SDS011;3131;42.630;23.382;2022-12-07T12:41:08;41.20;;;19.00;;
6195;SDS011;3131;42.630;23.382;2022-12-07T12:43:41;46.27;;;17.03;;
6195;SDS011;3131;42.630;23.382;2022-12-07T12:58:43;40.93;;;19.27;;
6195;SDS011;3131;42.630;23.382;2022-12-07T13:04:37;37.37;;;16.10;;
6195;SDS011;3131;42.630;23.382;2022-12-07T13:13:30;35.00;;;18.53;;
6195;SDS011;3131;42.630;23.382;2022-12-07T13:25:42;40.33;;;14.13;;
6195;SDS011;3131;42.630;23.382;2022-12-07T13:28:15;30.07;;;13.23;;
6195;SDS011;3131;42.630;23.382;2022-12-07T13:30:47;35.80;;;12.50;;
6195;SDS011;3131;42.630;23.382;2022-12-07T13:33:38;36.63;;;14.00;;
6195;SDS011;3131;42.630;23.382;2022-12-07T13:36:11;38.03;;;13.60;;
6195;SDS011;3131;42.630;23.382;2022-12-07T13:38:51;72.47;;;15.87;;
6195;SDS011;3131;42.630;23.382;2022-12-07T13:41:22;29.87;;;14.50;;
6195;SDS011;3131;42.630;23.382;2022-12-07T13:43:59;28.97;;;14.47;;
6195;SDS011;3131;42.630;23.382;2022-12-07T13:49:37;34.67;;;16.23;;
6195;SDS011;3131;42.630;23.382;2022-12-07T13:52:16;33.63;;;15.83;;
6195;SDS011;3131;42.630;23.382;2022-12-07T13:54:47;50.60;;;15.60;;
6195;SDS011;3131;42.630;23.382;2022-12-07T13:57:18;33.87;;;16.13;;
6195;SDS011;3131;42.630;23.382;2022-12-07T13:59:48;36.10;;;16.60;;
6195;SDS011;3131;42.630;23.382;2022-12-07T14:02:18;51.67;;;17.47;;
6195;SDS011;3131;42.630;23.382;2022-12-07T14:04:49;67.20;;;17.83;;
6195;SDS011;3131;42.630;23.382;2022-12-07T14:07:23;70.63;;;18.40;;
6195;SDS011;3131;42.630;23.382;2022-12-07T14:09:54;44.87;;;17.20;;
6195;SDS011;3131;42.630;23.382;2022-12-07T14:12:26;41.53;;;15.33;;
6195;SDS011;3131;42.630;23.382;2022-12-07T14:14:57;42.63;;;16.40;;
6195;SDS011;3131;42.630;23.382;2022-12-07T14:17:28;39.03;;;14.83;;
6195;SDS011;3131;42.630;23.382;2022-12-07T14:19:58;37.23;;;16.23;;
6195;SDS011;3131;42.630;23.382;2022-12-07T14:22:29;39.10;;;13.93;;
6195;SDS011;3131;42.630;23.382;2022-12-07T14:25:17;36.87;;;15.07;;
6195;SDS011;3131;42.630;23.382;2022-12-07T14:28:00;38.00;;;13.83;;
6195;SDS011;3131;42.630;23.382;2022-12-07T14:30:30;43.53;;;15.43;;
6195;SDS011;3131;42.630;23.382;2022-12-07T14:33:01;38.23;;;14.27;;
6195;SDS011;3131;42.630;23.382;2022-12-07T14:35:31;33.83;;;13.40;;
6195;SDS011;3131;42.630;23.382;2022-12-07T14:38:01;30.30;;;14.40;;
6195;SDS011;3131;42.630;23.382;2022-12-07T14:40:30;62.43;;;15.50;;
6195;SDS011;3131;42.630;23.382;2022-12-07T14:43:01;35.57;;;14.13;;
6195;SDS011;3131;42.630;23.382;2022-12-07T14:45:33;44.87;;;15.83;;
6195;SDS011;3131;42.630;23.382;2022-12-07T14:48:02;47.77;;;15.97;;
6195;SDS011;3131;42.630;23.382;2022-12-07T14:50:33;42.43;;;17.13;;
6195;SDS011;3131;42.630;23.382;2022-12-07T14:53:15;57.73;;;16.50;;
6195;SDS011;3131;42.630;23.382;2022-12-07T14:55:46;60.20;;;19.97;;
6195;SDS011;3131;42.630;23.382;2022-12-07T14:58:16;36.07;;;15.80;;
6195;SDS011;3131;42.630;23.382;2022-12-07T15:00:46;64.00;;;18.60;;
6195;SDS011;3131;42.630;23.382;2022-12-07T15:03:16;35.80;;;14.97;;
6195;SDS011;3131;42.630;23.382;2022-12-07T15:05:45;32.83;;;14.83;;
6195;SDS011;3131;42.630;23.382;2022-12-07T15:08:14;35.53;;;15.87;;
6195;SDS011;3131;42.630;23.382;2022-12-07T15:10:44;53.20;;;20.60;;
6195;SDS011;3131;42.630;23.382;2022-12-07T15:13:14;44.33;;;17.30;;
6195;SDS011;3131;42.630;23.382;2022-12-07T15:16:00;43.03;;;17.60;;
6195;SDS011;3131;42.630;23.382;2022-12-07T15:18:30;61.87;;;20.70;;
6195;SDS011;3131;42.630;23.382;2022-12-07T15:20:59;48.20;;;20.63;;
6195;SDS011;3131;42.630;23.382;2022-12-07T15:23:28;39.27;;;17.67;;
6195;SDS011;3131;42.630;23.382;2022-12-07T15:25:58;51.60;;;19.20;;
6195;SDS011;3131;42.630;23.382;2022-12-07T15:28:27;64.27;;;20.27;;
6195;SDS011;3131;42.630;23.382;2022-12-07T15:30:56;78.87;;;22.83;;
6195;SDS011;3131;42.630;23.382;2022-12-07T15:33:26;49.73;;;20.17;;
6195;SDS011;3131;42.630;23.382;2022-12-07T15:35:55;68.07;;;19.60;;
6195;SDS011;3131;42.630;23.382;2022-12-07T15:38:25;43.50;;;20.57;;
6195;SDS011;3131;42.630;23.382;2022-12-07T15:40:56;50.87;;;20.00;;
6195;SDS011;3131;42.630;23.382;2022-12-07T15:43:25;55.40;;;20.87;;
6195;SDS011;3131;42.630;23.382;2022-12-07T15:46:12;51.90;;;19.53;;
6195;SDS011;3131;42.630;23.382;2022-12-07T15:48:42;42.23;;;18.10;;
6195;SDS011;3131;42.630;23.382;2022-12-07T15:51:12;43.10;;;20.33;;
6195;SDS011;3131;42.630;23.382;2022-12-07T15:53:42;52.53;;;20.70;;
6195;SDS011;3131;42.630;23.382;2022-12-07T15:56:11;45.90;;;19.30;;
6195;SDS011;3131;42.630;23.382;2022-12-07T15:58:41;44.70;;;16.97;;
6195;SDS011;3131;42.630;23.382;2022-12-07T16:01:10;47.20;;;19.00;;
6195;SDS011;3131;42.630;23.382;2022-12-07T16:03:41;49.10;;;17.97;;
6195;SDS011;3131;42.630;23.382;2022-12-07T16:06:11;87.53;;;35.80;;
6195;SDS011;3131;42.630;23.382;2022-12-07T16:08:43;63.50;;;23.33;;
6195;SDS011;3131;42.630;23.382;2022-12-07T16:11:12;55.07;;;22.63;;